Time;durP1;ratioP1;P1;durP2;ratioP2;P2;SDS_P1;SDS_P2;PMS_P1;PMS_P2;Temp;Humidity;BMP_temperature;BMP_pressure;BME280_temperature;BME280_humidity;BME280_pressure;Samples;Min_cycle;Max_cycle;Signal;HPM_P1;HPM_P2
2023/06/30 00:00:12;;;;;;;;;;;20.00;90.70;;;;;;5035544;28;19917;-82
2023/06/30 00:02:38;;;;;;;;;;;19.90;91.00;;;;;;5036376;28;20010;-83
2023/06/30 00:05:05;;;;;;;;;;;19.80;90.70;;;;;;5036406;28;19989;-82
2023/06/30 00:07:30;;;;;;;;;;;19.80;90.50;;;;;;5037244;28;20008;-82
2023/06/30 00:09:56;;;;;;;;;;;19.70;90.50;;;;;;5037576;28;19959;-83
2023/06/30 00:12:21;;;;;;;;;;;19.60;90.60;;;;;;5035321;28;20436;-83
2023/06/30 00:14:47;;;;;;;;;;;19.60;90.60;;;;;;5037142;28;19916;-83
2023/06/30 00:17:13;;;;;;;;;;;19.60;90.60;;;;;;5037640;28;20003;-83
2023/06/30 00:19:38;;;;;;;;;;;19.70;90.70;;;;;;5039445;28;19952;-83
2023/06/30 00:22:04;;;;;;;;;;;19.70;90.50;;;;;;5041464;28;19905;-84
2023/06/30 00:24:29;;;;;;;;;;;19.70;90.50;;;;;;5038842;28;19913;-84
2023/06/30 00:26:55;;;;;;;;;;;19.80;90.70;;;;;;5037765;28;19916;-82
2023/06/30 00:29:20;;;;;;;;;;;19.80;90.80;;;;;;5040532;28;19954;-83
2023/06/30 00:31:46;;;;;;;;;;;19.90;90.60;;;;;;5040778;28;19931;-84
2023/06/30 00:34:11;;;;;;;;;;;20.00;90.30;;;;;;5044775;28;19909;-82
2023/06/30 00:36:37;;;;;;;;;;;20.00;89.70;;;;;;5045460;28;19936;-83
2023/06/30 00:39:02;;;;;;;;;;;19.90;90.00;;;;;;5048131;28;19917;-82
2023/06/30 00:41:28;;;;;;;;;;;19.90;90.10;;;;;;5048727;28;19909;-82
2023/06/30 00:43:53;;;;;;;;;;;19.90;90.00;;;;;;5051158;28;19916;-83
2023/06/30 00:46:19;;;;;;;;;;;19.90;89.60;;;;;;5043507;28;19909;-84
2023/06/30 00:48:45;;;;;;;;;;;19.90;89.50;;;;;;5045803;28;19917;-83
2023/06/30 00:51:11;;;;;;;;;;;19.90;89.60;;;;;;5045670;28;19959;-84
2023/06/30 00:53:37;;;;;;;;;;;19.90;89.40;;;;;;5044920;28;20375;-83
2023/06/30 00:56:03;;;;;;;;;;;19.90;89.60;;;;;;5044992;28;19972;-83
2023/06/30 00:58:29;;;;;;;;;;;19.90;89.00;;;;;;5043675;28;19944;-85
2023/06/30 01:01:03;;;;;;;;;;;19.90;88.90;;;;;;5041082;28;19917;-85
2023/06/30 01:03:35;;;;;;;;;;;19.90;88.70;;;;;;5044576;28;19906;-84
2023/06/30 01:06:04;;;;;;;;;;;19.70;88.80;;;;;;5042368;28;19905;-83
2023/06/30 01:08:31;;;;;;;;;;;19.80;89.20;;;;;;5039185;28;19905;-83
2023/06/30 01:10:57;;;;;;;;;;;19.80;89.20;;;;;;5039950;28;19906;-83
2023/06/30 01:13:24;;;;;;;;;;;19.80;89.00;;;;;;5037969;28;19905;-85
2023/06/30 01:15:50;;;;;;;;;;;19.70;89.10;;;;;;5042288;28;19934;-84
2023/06/30 01:18:19;;;;;;;;;;;19.70;89.40;;;;;;5040465;28;19913;-84
2023/06/30 01:20:45;;;;;;;;;;;19.60;89.10;;;;;;5039638;28;19919;-83
2023/06/30 01:23:16;;;;;;;;;;;19.50;89.20;;;;;;5037631;28;19916;-84
2023/06/30 01:25:42;;;;;;;;;;;19.50;89.60;;;;;;5037108;28;19909;-85
2023/06/30 01:28:08;;;;;;;;;;;19.50;89.70;;;;;;5036074;28;19916;-86
2023/06/30 01:30:33;;;;;;;;;;;19.40;89.80;;;;;;5039120;28;19999;-84
2023/06/30 01:32:59;;;;;;;;;;;19.40;90.00;;;;;;5038592;28;19941;-85
2023/06/30 01:35:25;;;;;;;;;;;19.40;89.60;;;;;;5040433;28;19963;-84
2023/06/30 01:37:52;;;;;;;;;;;19.30;89.70;;;;;;5045409;28;19905;-83
2023/06/30 01:40:17;;;;;;;;;;;19.30;89.80;;;;;;5043027;28;19996;-84
2023/06/30 01:42:44;;;;;;;;;;;19.30;89.70;;;;;;5040129;28;19905;-84
2023/06/30 01:45:09;;;;;;;;;;;19.30;90.10;;;;;;5041597;28;19999;-84
2023/06/30 01:47:35;;;;;;;;;;;19.30;90.10;;;;;;5045734;28;19972;-84
2023/06/30 01:50:01;;;;;;;;;;;19.40;89.90;;;;;;5040686;28;20334;-80
2023/06/30 01:52:27;;;;;;;;;;;19.40;90.10;;;;;;5038397;28;19909;-84
2023/06/30 01:54:52;;;;;;;;;;;19.50;90.10;;;;;;5040470;28;19916;-84
2023/06/30 01:57:18;;;;;;;;;;;19.50;90.00;;;;;;5038127;28;19962;-84
2023/06/30 01:59:43;;;;;;;;;;;19.50;90.00;;;;;;5038643;28;19945;-84
2023/06/30 02:02:09;;;;;;;;;;;19.50;89.80;;;;;;5038475;28;19956;-85
2023/06/30 02:04:34;;;;;;;;;;;19.60;89.80;;;;;;5039822;28;19909;-84
2023/06/30 02:07:00;;;;;;;;;;;19.60;89.80;;;;;;5036323;28;19913;-85
2023/06/30 02:09:25;;;;;;;;;;;19.60;89.90;;;;;;5039607;28;20454;-84
2023/06/30 02:11:51;;;;;;;;;;;19.70;89.00;;;;;;5040596;28;19909;-83
2023/06/30 02:14:16;;;;;;;;;;;19.70;89.10;;;;;;5038582;28;19909;-84
2023/06/30 02:16:42;;;;;;;;;;;19.70;89.20;;;;;;5035215;28;20280;-84
2023/06/30 02:19:07;;;;;;;;;;;19.70;88.90;;;;;;5039152;28;19920;-84
2023/06/30 02:21:33;;;;;;;;;;;19.70;89.00;;;;;;5036790;28;20358;-84
2023/06/30 02:23:58;;;;;;;;;;;19.70;88.70;;;;;;5037882;28;19916;-84
2023/06/30 02:26:24;;;;;;;;;;;19.70;88.20;;;;;;5037376;28;19909;-84
2023/06/30 02:28:49;;;;;;;;;;;19.70;87.50;;;;;;5037197;28;19936;-84
2023/06/30 02:31:15;;;;;;;;;;;19.70;87.80;;;;;;5041644;28;19931;-85
2023/06/30 02:33:41;;;;;;;;;;;19.70;88.00;;;;;;5039737;28;19918;-85
2023/06/30 02:36:06;;;;;;;;;;;19.70;87.60;;;;;;5039114;28;19909;-84
2023/06/30 02:38:32;;;;;;;;;;;19.70;87.90;;;;;;5043734;28;19909;-83
2023/06/30 02:40:57;;;;;;;;;;;19.70;87.30;;;;;;5041661;28;19913;-83
2023/06/30 02:43:23;;;;;;;;;;;19.70;87.20;;;;;;5037799;28;19909;-85
2023/06/30 02:45:48;;;;;;;;;;;19.60;87.00;;;;;;5039587;28;19915;-84
2023/06/30 02:48:14;;;;;;;;;;;19.60;87.30;;;;;;5040273;28;20011;-84
2023/06/30 02:50:40;;;;;;;;;;;19.60;87.20;;;;;;5040086;28;19921;-84
2023/06/30 02:53:06;;;;;;;;;;;19.60;86.90;;;;;;5040949;28;20392;-84
2023/06/30 02:55:33;;;;;;;;;;;19.50;87.20;;;;;;5038953;28;19932;-83
2023/06/30 02:57:58;;;;;;;;;;;19.50;87.60;;;;;;5038050;28;19909;-83
2023/06/30 03:00:24;;;;;;;;;;;19.50;87.50;;;;;;5035238;28;19967;-84
2023/06/30 03:02:49;;;;;;;;;;;19.50;88.20;;;;;;5038078;28;20308;-84
2023/06/30 03:05:15;;;;;;;;;;;19.50;88.00;;;;;;5039731;28;19905;-84
2023/06/30 03:07:41;;;;;;;;;;;19.60;88.10;;;;;;5039254;28;20043;-84
2023/06/30 03:10:06;;;;;;;;;;;19.60;87.40;;;;;;5038973;28;19948;-83
2023/06/30 03:12:32;;;;;;;;;;;19.60;87.70;;;;;;5040848;28;19905;-83
2023/06/30 03:14:57;;;;;;;;;;;19.60;87.70;;;;;;5057295;28;20335;-84
2023/06/30 03:17:23;;;;;;;;;;;19.60;87.70;;;;;;5041108;28;19992;-83
2023/06/30 03:19:49;;;;;;;;;;;19.60;86.80;;;;;;5041144;28;20004;-84
2023/06/30 03:22:14;;;;;;;;;;;19.60;87.20;;;;;;5042325;28;19913;-83
2023/06/30 03:24:40;;;;;;;;;;;19.60;86.60;;;;;;5042107;28;19905;-84
2023/06/30 03:27:05;;;;;;;;;;;19.60;86.30;;;;;;5042890;28;20005;-83
2023/06/30 03:29:31;;;;;;;;;;;19.50;86.50;;;;;;5041647;28;20003;-83
2023/06/30 03:31:56;;;;;;;;;;;19.50;86.70;;;;;;5040858;28;19909;-84
2023/06/30 03:34:22;;;;;;;;;;;19.50;86.30;;;;;;5042951;28;19915;-83
2023/06/30 03:36:47;;;;;;;;;;;19.30;86.50;;;;;;5043116;28;19909;-84
2023/06/30 03:39:13;;;;;;;;;;;19.30;87.10;;;;;;5040039;28;19924;-83
2023/06/30 03:41:38;;;;;;;;;;;19.40;87.20;;;;;;5040491;28;20365;-84
2023/06/30 03:44:04;;;;;;;;;;;19.40;87.00;;;;;;5039246;28;20377;-85
2023/06/30 03:46:29;;;;;;;;;;;19.40;87.10;;;;;;5039654;28;19909;-84
2023/06/30 03:48:55;;;;;;;;;;;19.50;87.40;;;;;;5041109;28;19917;-85
2023/06/30 03:51:20;;;;;;;;;;;19.50;87.50;;;;;;5041037;28;19920;-84
2023/06/30 03:53:46;;;;;;;;;;;19.50;86.80;;;;;;5041806;28;19913;-85
2023/06/30 03:56:11;;;;;;;;;;;19.50;87.40;;;;;;5041041;28;19987;-85
2023/06/30 03:58:37;;;;;;;;;;;19.60;87.50;;;;;;5039928;28;19933;-84
2023/06/30 04:01:02;;;;;;;;;;;19.70;87.80;;;;;;5039500;28;19913;-85
2023/06/30 04:03:28;;;;;;;;;;;19.70;87.70;;;;;;5039114;28;20399;-85
2023/06/30 04:05:54;;;;;;;;;;;19.70;87.50;;;;;;5040238;28;19915;-85
2023/06/30 04:08:19;;;;;;;;;;;19.80;87.40;;;;;;5038123;28;19905;-85
2023/06/30 04:10:45;;;;;;;;;;;19.80;87.70;;;;;;5039587;28;19963;-85
2023/06/30 04:13:10;;;;;;;;;;;19.90;87.80;;;;;;5037693;28;20149;-82
2023/06/30 04:15:36;;;;;;;;;;;20.00;87.70;;;;;;5037573;28;19983;-85
2023/06/30 04:18:02;;;;;;;;;;;20.00;87.60;;;;;;5038752;28;19921;-84
2023/06/30 04:20:27;;;;;;;;;;;20.00;87.40;;;;;;5038996;28;20397;-84
2023/06/30 04:22:53;;;;;;;;;;;20.10;87.10;;;;;;5038134;28;20027;-85
2023/06/30 04:25:19;;;;;;;;;;;20.10;86.90;;;;;;5038382;28;19959;-85
2023/06/30 04:27:44;;;;;;;;;;;20.10;86.50;;;;;;5038189;28;19928;-84
2023/06/30 04:30:10;;;;;;;;;;;20.20;86.70;;;;;;5039397;28;19916;-84
2023/06/30 04:32:36;;;;;;;;;;;20.20;85.90;;;;;;5036811;28;20332;-84
2023/06/30 04:35:01;;;;;;;;;;;20.20;86.40;;;;;;5038885;28;19909;-85
2023/06/30 04:37:29;;;;;;;;;;;20.20;86.10;;;;;;5039491;28;20354;-84
2023/06/30 04:39:58;;;;;;;;;;;20.20;86.20;;;;;;5038202;28;20361;-84
2023/06/30 04:42:27;;;;;;;;;;;20.20;85.90;;;;;;5041122;28;19917;-85
2023/06/30 04:44:52;;;;;;;;;;;20.20;86.20;;;;;;5038969;28;19909;-85
2023/06/30 04:47:18;;;;;;;;;;;20.20;85.90;;;;;;5039224;28;20036;-84
2023/06/30 04:49:43;;;;;;;;;;;20.10;85.00;;;;;;5040893;28;19924;-85
2023/06/30 04:52:09;;;;;;;;;;;20.10;85.50;;;;;;5041068;28;19999;-84
2023/06/30 04:54:34;;;;;;;;;;;20.10;84.70;;;;;;5040348;28;19905;-84
2023/06/30 04:57:00;;;;;;;;;;;20.00;84.90;;;;;;5040230;28;19931;-84
2023/06/30 04:59:25;;;;;;;;;;;19.80;83.10;;;;;;5037209;28;20261;-85
2023/06/30 05:01:51;;;;;;;;;;;19.70;83.40;;;;;;5040061;28;19999;-84
2023/06/30 05:04:17;;;;;;;;;;;19.70;83.80;;;;;;5040547;28;19968;-84
2023/06/30 05:06:43;;;;;;;;;;;19.60;83.80;;;;;;5040612;28;20012;-85
2023/06/30 05:09:08;;;;;;;;;;;19.50;84.10;;;;;;5038727;28;19944;-85
2023/06/30 05:11:34;;;;;;;;;;;19.40;84.30;;;;;;5037670;28;19909;-84
2023/06/30 05:14:00;;;;;;;;;;;19.30;84.50;;;;;;5037550;28;19909;-85
2023/06/30 05:16:26;;;;;;;;;;;19.30;85.20;;;;;;5036374;28;19917;-85
2023/06/30 05:18:52;;;;;;;;;;;19.30;85.00;;;;;;5036132;28;20262;-86
2023/06/30 05:21:17;;;;;;;;;;;19.30;84.70;;;;;;5036311;28;19956;-85
2023/06/30 05:23:43;;;;;;;;;;;19.30;85.20;;;;;;5051152;28;19956;-86
2023/06/30 05:26:09;;;;;;;;;;;19.20;84.90;;;;;;5034051;28;19916;-86
2023/06/30 05:28:35;;;;;;;;;;;19.10;85.50;;;;;;5035938;28;20357;-85
2023/06/30 05:31:00;;;;;;;;;;;19.10;85.50;;;;;;5036237;28;19905;-85
2023/06/30 05:33:26;;;;;;;;;;;19.10;85.50;;;;;;5036465;28;19919;-84
2023/06/30 05:35:51;;;;;;;;;;;19.10;85.60;;;;;;5034074;28;20269;-85
2023/06/30 05:38:17;;;;;;;;;;;19.00;85.90;;;;;;5035169;28;19951;-85
2023/06/30 05:40:43;;;;;;;;;;;19.10;86.00;;;;;;5033796;28;20012;-85
2023/06/30 05:43:08;;;;;;;;;;;19.00;85.70;;;;;;5034953;28;19967;-85
2023/06/30 05:45:41;;;;;;;;;;;18.90;86.20;;;;;;5051138;28;19913;-84
2023/06/30 05:48:07;;;;;;;;;;;18.90;86.40;;;;;;5051105;28;20007;-83
2023/06/30 05:50:32;;;;;;;;;;;18.80;86.90;;;;;;5051043;28;19917;-83
2023/06/30 05:52:58;;;;;;;;;;;18.90;87.50;;;;;;5051410;28;19943;-83
2023/06/30 05:55:23;;;;;;;;;;;19.00;87.70;;;;;;5051061;28;20004;-84
2023/06/30 05:57:49;;;;;;;;;;;19.10;87.70;;;;;;5051213;28;19913;-85
2023/06/30 06:00:15;;;;;;;;;;;19.20;87.60;;;;;;5051538;28;19967;-85
2023/06/30 06:02:40;;;;;;;;;;;19.20;87.40;;;;;;5048690;28;20399;-75
2023/06/30 06:05:06;;;;;;;;;;;19.30;88.70;;;;;;5049437;28;20020;-77
2023/06/30 06:07:32;;;;;;;;;;;19.50;89.50;;;;;;5049807;28;19917;-75
2023/06/30 06:09:58;;;;;;;;;;;19.90;88.30;;;;;;5048987;28;19939;-75
2023/06/30 06:12:23;;;;;;;;;;;20.00;84.50;;;;;;5048292;28;19922;-76
2023/06/30 06:14:49;;;;;;;;;;;20.00;85.60;;;;;;5051219;28;19917;-76
2023/06/30 06:17:14;;;;;;;;;;;20.00;84.90;;;;;;5048623;28;20023;-77
2023/06/30 06:19:40;;;;;;;;;;;20.10;85.40;;;;;;5049304;28;20004;-76
2023/06/30 06:22:05;;;;;;;;;;;20.20;85.70;;;;;;5049822;28;20361;-76
2023/06/30 06:24:32;;;;;;;;;;;20.50;84.00;;;;;;5050014;28;19959;-76
2023/06/30 06:26:57;;;;;;;;;;;20.70;83.00;;;;;;5050501;28;19909;-75
2023/06/30 06:29:23;;;;;;;;;;;20.50;82.50;;;;;;5050496;28;20250;-85
2023/06/30 06:31:49;;;;;;;;;;;20.50;83.00;;;;;;5048878;28;19917;-84
2023/06/30 06:34:15;;;;;;;;;;;20.60;83.10;;;;;;5050030;28;19932;-86
2023/06/30 06:36:40;;;;;;;;;;;20.70;82.40;;;;;;5050565;28;19909;-86
2023/06/30 06:39:06;;;;;;;;;;;20.60;82.20;;;;;;5048615;28;20011;-85
2023/06/30 06:41:32;;;;;;;;;;;20.50;82.10;;;;;;5049558;28;19917;-87
2023/06/30 06:43:57;;;;;;;;;;;20.40;82.40;;;;;;5049738;28;19935;-85
2023/06/30 06:46:23;;;;;;;;;;;20.30;82.60;;;;;;5046975;28;19920;-82
2023/06/30 06:48:48;;;;;;;;;;;20.20;82.60;;;;;;5048783;28;20316;-83
2023/06/30 06:51:14;;;;;;;;;;;20.20;82.50;;;;;;5049080;28;19909;-81
2023/06/30 06:53:39;;;;;;;;;;;20.30;82.90;;;;;;5050969;28;19921;-83
2023/06/30 06:56:05;;;;;;;;;;;20.30;82.60;;;;;;5041729;28;20405;-83
2023/06/30 06:58:32;;;;;;;;;;;20.40;82.10;;;;;;5035801;28;19913;-83
2023/06/30 07:00:57;;;;;;;;;;;20.40;82.40;;;;;;5036775;28;19951;-83
2023/06/30 07:03:23;;;;;;;;;;;20.50;81.60;;;;;;5036490;28;19917;-82
2023/06/30 07:05:49;;;;;;;;;;;20.40;81.40;;;;;;5036491;28;19913;-81
2023/06/30 07:08:18;;;;;;;;;;;20.40;81.50;;;;;;5036603;28;19913;-86
2023/06/30 07:10:44;;;;;;;;;;;20.40;81.00;;;;;;5036827;28;19964;-84
2023/06/30 07:13:10;;;;;;;;;;;20.40;80.30;;;;;;5036504;28;19963;-84
2023/06/30 07:15:36;;;;;;;;;;;20.30;80.60;;;;;;5035588;28;19909;-84
2023/06/30 07:18:02;;;;;;;;;;;20.40;80.90;;;;;;5036160;28;19936;-84
2023/06/30 07:20:27;;;;;;;;;;;20.40;80.40;;;;;;5068962;28;19921;-84
2023/06/30 07:22:53;;;;;;;;;;;20.40;80.10;;;;;;5037601;28;20012;-83
2023/06/30 07:25:19;;;;;;;;;;;20.50;81.40;;;;;;5038191;28;19992;-82
2023/06/30 07:27:52;;;;;;;;;;;20.60;82.20;;;;;;5036719;28;20412;-82
2023/06/30 07:30:23;;;;;;;;;;;20.70;82.00;;;;;;5037753;28;19917;-81
2023/06/30 07:32:49;;;;;;;;;;;20.80;80.30;;;;;;5051761;28;20365;-86
2023/06/30 07:35:15;;;;;;;;;;;20.90;79.80;;;;;;5048753;28;20353;-85
2023/06/30 07:37:41;;;;;;;;;;;21.00;78.10;;;;;;5058776;28;20376;-82
2023/06/30 07:40:07;;;;;;;;;;;21.20;77.80;;;;;;5056132;28;20026;-84
2023/06/30 07:42:32;;;;;;;;;;;21.20;77.10;;;;;;5057271;28;20011;-78
2023/06/30 07:44:59;;;;;;;;;;;21.20;77.80;;;;;;5049789;28;19925;-76
2023/06/30 07:47:24;;;;;;;;;;;21.30;76.10;;;;;;5036435;28;20388;-79
2023/06/30 07:49:50;;;;;;;;;;;21.30;73.90;;;;;;5034882;28;19944;-78
2023/06/30 07:52:16;;;;;;;;;;;21.30;73.30;;;;;;5035425;28;19948;-77
2023/06/30 07:54:46;;;;;;;;;;;21.30;74.50;;;;;;5035533;28;20013;-78
2023/06/30 07:57:11;;;;;;;;;;;21.40;73.20;;;;;;5035495;28;19913;-82
2023/06/30 07:59:37;;;;;;;;;;;21.40;72.40;;;;;;5043099;28;19913;-82
2023/06/30 08:02:03;;;;;;;;;;;21.40;73.10;;;;;;5053937;28;19924;-82
2023/06/30 08:04:29;;;;;;;;;;;21.40;73.20;;;;;;5038326;28;19924;-80
2023/06/30 08:06:55;;;;;;;;;;;21.50;72.90;;;;;;5034611;28;20013;-79
2023/06/30 08:09:20;;;;;;;;;;;21.60;73.00;;;;;;5034710;28;19919;-79
2023/06/30 08:11:46;;;;;;;;;;;21.70;73.30;;;;;;5033714;28;19913;-78
2023/06/30 08:14:12;;;;;;;;;;;21.80;72.00;;;;;;5035044;28;19909;-78
2023/06/30 08:16:37;;;;;;;;;;;21.80;72.30;;;;;;5035015;28;19909;-79
2023/06/30 08:19:03;;;;;;;;;;;21.80;71.00;;;;;;5034170;28;19913;-79
2023/06/30 08:21:28;;;;;;;;;;;21.80;71.70;;;;;;5034580;28;19922;-80
2023/06/30 08:23:54;;;;;;;;;;;21.80;71.50;;;;;;5034299;28;20324;-80
2023/06/30 08:26:19;;;;;;;;;;;21.90;71.00;;;;;;5033331;28;19940;-80
2023/06/30 08:28:45;;;;;;;;;;;21.90;71.40;;;;;;5034575;28;19913;-81
2023/06/30 08:31:10;;;;;;;;;;;22.10;71.60;;;;;;5034553;28;19941;-80
2023/06/30 08:33:36;;;;;;;;;;;22.10;68.70;;;;;;5034559;28;19913;-79
2023/06/30 08:36:02;;;;;;;;;;;22.10;69.00;;;;;;5033018;28;19910;-81
2023/06/30 08:38:27;;;;;;;;;;;22.10;69.30;;;;;;5034488;28;19909;-82
2023/06/30 08:40:53;;;;;;;;;;;22.20;69.80;;;;;;5034677;28;20312;-79
2023/06/30 08:43:20;;;;;;;;;;;22.20;67.50;;;;;;5034312;28;20380;-77
2023/06/30 08:45:47;;;;;;;;;;;22.20;68.50;;;;;;5033925;28;19921;-81
2023/06/30 08:48:15;;;;;;;;;;;22.30;67.60;;;;;;5034140;28;20333;-79
2023/06/30 08:50:41;;;;;;;;;;;22.30;67.50;;;;;;5033603;28;19916;-78
2023/06/30 08:53:07;;;;;;;;;;;22.40;68.10;;;;;;5034797;28;19909;-86
2023/06/30 08:55:33;;;;;;;;;;;22.50;68.60;;;;;;5033931;28;20016;-84
2023/06/30 08:57:58;;;;;;;;;;;22.70;68.50;;;;;;5035438;28;19931;-83
2023/06/30 09:00:24;;;;;;;;;;;22.80;67.10;;;;;;5034504;28;20346;-83
2023/06/30 09:02:50;;;;;;;;;;;22.80;66.10;;;;;;5035177;28;19910;-85
2023/06/30 09:05:16;;;;;;;;;;;22.80;66.90;;;;;;5035004;28;20024;-82
2023/06/30 09:07:43;;;;;;;;;;;23.00;67.70;;;;;;5034130;28;19959;-84
2023/06/30 09:10:09;;;;;;;;;;;23.00;66.40;;;;;;5034940;28;19947;-85
2023/06/30 09:12:35;;;;;;;;;;;23.00;66.80;;;;;;5034398;28;19952;-84
2023/06/30 09:15:01;;;;;;;;;;;22.90;63.90;;;;;;5034094;28;19913;-83
2023/06/30 09:17:27;;;;;;;;;;;22.70;63.60;;;;;;5038398;28;19915;-82
2023/06/30 09:19:53;;;;;;;;;;;22.70;65.70;;;;;;5046513;28;19917;-83
2023/06/30 09:22:22;;;;;;;;;;;22.80;65.10;;;;;;5048855;28;19920;-82
2023/06/30 09:24:47;;;;;;;;;;;22.90;64.80;;;;;;5045484;28;19917;-82
2023/06/30 09:27:13;;;;;;;;;;;22.90;64.30;;;;;;5040988;28;20011;-83
2023/06/30 09:29:39;;;;;;;;;;;22.90;64.70;;;;;;5048683;28;19913;-90
2023/06/30 09:32:32;;;;;;;;;;;23.00;66.10;;;;;;5048463;28;19955;-87
2023/06/30 09:35:52;;;;;;;;;;;23.00;64.10;;;;;;5048651;28;19914;-88
2023/06/30 09:38:50;;;;;;;;;;;23.20;64.50;;;;;;5019371;28;19961;-90
2023/06/30 09:41:38;;;;;;;;;;;23.30;63.70;;;;;;5014853;28;19996;-89
2023/06/30 09:44:04;;;;;;;;;;;23.30;64.70;;;;;;4996690;28;19960;-90
2023/06/30 09:49:56;;;;;;;;;;;23.20;63.30;;;;;;5012030;28;19933;-87
2023/06/30 09:52:42;;;;;;;;;;;23.20;65.30;;;;;;5016753;28;19910;-88
2023/06/30 09:55:35;;;;;;;;;;;23.20;63.40;;;;;;5022938;28;19917;-88
2023/06/30 09:58:23;;;;;;;;;;;23.20;65.10;;;;;;5025770;28;19915;-86
2023/06/30 10:07:14;;;;;;;;;;;22.90;66.20;;;;;;4997897;28;19914;-89
2023/06/30 10:10:03;;;;;;;;;;;22.80;66.50;;;;;;5000277;28;19914;-89
2023/06/30 10:18:53;;;;;;;;;;;22.70;67.50;;;;;;5014088;28;19919;-87
2023/06/30 10:27:29;;;;;;;;;;;22.70;66.50;;;;;;5012947;28;19913;-85
2023/06/30 10:33:13;;;;;;;;;;;22.50;66.50;;;;;;4991578;28;19917;-84
2023/06/30 10:36:17;;;;;;;;;;;22.60;67.90;;;;;;5019664;28;20008;-88
2023/06/30 10:38:47;;;;;;;;;;;22.60;68.10;;;;;;5020962;28;20242;-88
2023/06/30 10:41:19;;;;;;;;;;;22.70;66.80;;;;;;5022767;28;20326;-88
2023/06/30 10:44:26;;;;;;;;;;;;;;;;;;;;;
2023/06/30 10:47:08;;;;;;;;;;;22.80;68.40;;;;;;5047763;28;20355;-85
2023/06/30 10:49:38;;;;;;;;;;;22.80;67.80;;;;;;5061033;28;19976;-89
2023/06/30 10:52:07;;;;;;;;;;;22.70;66.00;;;;;;5048632;28;19913;-85
2023/06/30 10:54:42;;;;;;;;;;;22.40;66.90;;;;;;5041048;28;20385;-88
2023/06/30 10:57:08;;;;;;;;;;;22.40;67.10;;;;;;5064238;28;19920;-88
2023/06/30 10:59:53;;;;;;;;;;;22.30;67.30;;;;;;5039591;28;20415;-86
2023/06/30 11:02:37;;;;;;;;;;;22.40;68.00;;;;;;5061949;28;20426;-89
2023/06/30 11:05:21;;;;;;;;;;;22.60;67.20;;;;;;5061550;28;19935;-89
2023/06/30 11:07:48;;;;;;;;;;;22.60;67.00;;;;;;5047032;28;20325;-88
2023/06/30 11:10:25;;;;;;;;;;;22.80;67.20;;;;;;5080121;28;19912;-89
2023/06/30 11:12:51;;;;;;;;;;;23.00;66.30;;;;;;5045854;28;19909;-91
2023/06/30 11:15:36;;;;;;;;;;;23.10;69.50;;;;;;5041453;28;19908;-87
2023/06/30 11:18:08;;;;;;;;;;;23.20;67.70;;;;;;5065170;28;19931;-87
2023/06/30 11:20:34;;;;;;;;;;;23.40;65.80;;;;;;5059931;28;19919;-89
2023/06/30 11:23:01;;;;;;;;;;;23.40;65.30;;;;;;5045772;28;19913;-89
2023/06/30 11:25:27;;;;;;;;;;;23.30;66.10;;;;;;5065021;28;20376;-89
2023/06/30 11:27:53;;;;;;;;;;;23.20;65.40;;;;;;5044090;28;19917;-89
2023/06/30 11:30:21;;;;;;;;;;;23.30;65.80;;;;;;5081706;28;19900;-89
2023/06/30 11:35:52;;;;;;;;;;;23.20;66.40;;;;;;5060611;28;19916;-91
2023/06/30 11:38:18;;;;;;;;;;;23.20;66.30;;;;;;5066373;28;20050;-89
2023/06/30 11:40:59;;;;;;;;;;;;;;;;;;;;;
2023/06/30 11:46:17;;;;;;;;;;;22.90;64.50;;;;;;5059332;28;20340;-87
2023/06/30 11:48:47;;;;;;;;;;;23.10;64.70;;;;;;5068197;28;19976;-89
2023/06/30 11:51:21;;;;;;;;;;;23.30;65.20;;;;;;5069908;28;19909;-89
2023/06/30 11:53:56;;;;;;;;;;;23.60;65.70;;;;;;5041780;28;19909;-87
2023/06/30 11:56:27;;;;;;;;;;;23.70;65.70;;;;;;5053973;28;19913;-87
2023/06/30 11:59:06;;;;;;;;;;;24.00;65.40;;;;;;5063388;28;19916;-87
2023/06/30 12:02:02;;;;;;;;;;;24.10;64.40;;;;;;5061078;28;19916;-87
2023/06/30 12:04:51;;;;;;;;;;;;;;;;;;;;;
2023/06/30 12:07:17;;;;;;;;;;;24.30;62.50;;;;;;5061274;28;20004;-90
2023/06/30 12:13:07;;;;;;;;;;;24.40;63.90;;;;;;5013351;28;20004;-86
2023/06/30 12:15:33;;;;;;;;;;;24.50;63.30;;;;;;5013127;28;19956;-85
2023/06/30 12:17:58;;;;;;;;;;;24.60;63.30;;;;;;5006176;28;19916;-85
2023/06/30 12:20:31;;;;;;;;;;;24.50;61.90;;;;;;5074874;28;19909;-86
2023/06/30 12:22:57;;;;;;;;;;;24.50;61.10;;;;;;5075256;28;19915;-84
2023/06/30 12:25:26;;;;;;;;;;;24.50;60.70;;;;;;5074685;28;19920;-85
2023/06/30 12:27:52;;;;;;;;;;;24.50;60.70;;;;;;5057302;28;20379;-86
2023/06/30 12:30:18;;;;;;;;;;;24.50;61.70;;;;;;5075455;28;19940;-86
2023/06/30 12:32:44;;;;;;;;;;;24.60;61.70;;;;;;5074824;28;19967;-86
2023/06/30 12:35:10;;;;;;;;;;;24.60;61.10;;;;;;5075234;28;20322;-85
2023/06/30 12:37:36;;;;;;;;;;;24.70;61.70;;;;;;5074666;28;19969;-86
2023/06/30 12:40:03;;;;;;;;;;;24.80;61.10;;;;;;5074737;28;19915;-86
2023/06/30 12:42:29;;;;;;;;;;;24.80;60.60;;;;;;5074878;28;19909;-86
2023/06/30 12:44:55;;;;;;;;;;;25.00;61.00;;;;;;5074703;28;20007;-85
2023/06/30 12:47:20;;;;;;;;;;;25.10;62.80;;;;;;5056590;28;20021;-85
2023/06/30 12:49:46;;;;;;;;;;;25.30;61.90;;;;;;5074079;28;19913;-86
2023/06/30 12:52:11;;;;;;;;;;;25.30;60.40;;;;;;5074466;28;19908;-85
2023/06/30 12:54:37;;;;;;;;;;;25.30;60.20;;;;;;5073895;28;20356;-85
2023/06/30 12:57:03;;;;;;;;;;;25.40;60.80;;;;;;5074547;28;20091;-86
2023/06/30 12:59:28;;;;;;;;;;;25.40;61.50;;;;;;5074537;28;19913;-86
2023/06/30 13:01:54;;;;;;;;;;;25.60;62.10;;;;;;5074737;28;19920;-84
2023/06/30 13:04:20;;;;;;;;;;;25.70;59.50;;;;;;5074650;28;20314;-87
2023/06/30 13:06:45;;;;;;;;;;;25.60;59.90;;;;;;5076518;28;19918;-84
2023/06/30 13:09:11;;;;;;;;;;;25.60;59.40;;;;;;5073494;28;20257;-84
2023/06/30 13:11:36;;;;;;;;;;;25.50;59.00;;;;;;5072540;28;20549;-86
2023/06/30 13:14:02;;;;;;;;;;;25.30;59.40;;;;;;5078534;28;19942;-81
2023/06/30 13:16:28;;;;;;;;;;;25.20;59.70;;;;;;5072988;28;19916;-86
2023/06/30 13:18:53;;;;;;;;;;;25.00;59.90;;;;;;5072274;28;20387;-87
2023/06/30 13:21:19;;;;;;;;;;;24.80;60.80;;;;;;5072602;28;19981;-86
2023/06/30 13:23:44;;;;;;;;;;;24.70;60.60;;;;;;5054878;28;20271;-87
2023/06/30 13:26:10;;;;;;;;;;;24.60;61.40;;;;;;5054423;28;19938;-86
2023/06/30 13:28:35;;;;;;;;;;;24.50;62.00;;;;;;5063476;28;20258;-86
2023/06/30 13:31:05;;;;;;;;;;;24.60;61.60;;;;;;5072877;28;19939;-86
2023/06/30 13:33:30;;;;;;;;;;;24.60;61.40;;;;;;5069385;28;20011;-84
2023/06/30 13:35:56;;;;;;;;;;;24.60;61.50;;;;;;5072472;28;19959;-84
2023/06/30 13:38:21;;;;;;;;;;;24.40;62.70;;;;;;5072601;28;19920;-84
2023/06/30 13:40:47;;;;;;;;;;;24.30;62.90;;;;;;5072590;28;19916;-84
2023/06/30 13:43:12;;;;;;;;;;;24.30;62.90;;;;;;5072553;28;20008;-85
2023/06/30 13:45:38;;;;;;;;;;;24.20;63.40;;;;;;5054483;28;19924;-85
2023/06/30 13:48:04;;;;;;;;;;;24.20;62.10;;;;;;5071918;28;19928;-84
2023/06/30 13:50:30;;;;;;;;;;;24.20;62.70;;;;;;5071875;28;20372;-84
2023/06/30 13:52:55;;;;;;;;;;;24.30;63.10;;;;;;5071851;28;20011;-82
2023/06/30 13:55:21;;;;;;;;;;;24.40;62.00;;;;;;5078372;28;19920;-85
2023/06/30 13:57:46;;;;;;;;;;;24.40;61.70;;;;;;5072139;28;19917;-81
2023/06/30 14:00:12;;;;;;;;;;;24.20;61.70;;;;;;5071998;28;20364;-82
2023/06/30 14:02:38;;;;;;;;;;;24.20;62.30;;;;;;5072624;28;19951;-85
2023/06/30 14:05:03;;;;;;;;;;;24.20;62.30;;;;;;5072257;28;19973;-86
2023/06/30 14:07:29;;;;;;;;;;;24.40;62.70;;;;;;5076152;28;20057;-85
2023/06/30 14:09:56;;;;;;;;;;;24.40;63.10;;;;;;5076348;28;20348;-86
2023/06/30 14:12:21;;;;;;;;;;;24.40;62.90;;;;;;5076549;28;19923;-84
2023/06/30 14:14:47;;;;;;;;;;;24.30;62.40;;;;;;5076052;28;19918;-85
2023/06/30 14:17:12;;;;;;;;;;;24.20;62.50;;;;;;5076378;28;19917;-85
2023/06/30 14:19:38;;;;;;;;;;;24.30;63.60;;;;;;5075294;28;20269;-84
2023/06/30 14:22:04;;;;;;;;;;;24.30;63.50;;;;;;5076287;28;19912;-82
2023/06/30 14:24:29;;;;;;;;;;;24.30;62.60;;;;;;5058328;28;19982;-80
2023/06/30 14:26:55;;;;;;;;;;;24.20;63.20;;;;;;5076725;28;20284;-84
2023/06/30 14:29:21;;;;;;;;;;;24.20;62.30;;;;;;5075916;28;20034;-86
2023/06/30 14:31:47;;;;;;;;;;;24.20;63.20;;;;;;5075857;28;19922;-86
2023/06/30 14:34:12;;;;;;;;;;;24.20;63.20;;;;;;5057661;28;19916;-84
2023/06/30 14:36:37;;;;;;;;;;;24.20;63.60;;;;;;5057528;28;20296;-82
2023/06/30 14:39:03;;;;;;;;;;;24.20;64.00;;;;;;5087009;28;20407;-85
2023/06/30 14:41:48;;;;;;;2.88;1.35;;;24.40;63.20;;;;;;5092015;27;1292968;-84
2023/06/30 14:44:13;;;;;;;2.50;1.17;;;24.50;64.10;;;;;;5130487;27;20097;-81
2023/06/30 14:46:39;;;;;;;5.13;1.00;;;24.40;63.50;;;;;;5129154;28;20501;-86
2023/06/30 14:49:05;;;;;;;3.05;0.90;;;24.40;63.70;;;;;;5129908;28;20131;-87
2023/06/30 14:51:31;;;;;;;2.85;1.00;;;24.20;63.20;;;;;;5131879;27;20043;-86
2023/06/30 14:53:56;;;;;;;6.30;1.20;;;24.20;64.00;;;;;;5132570;27;20062;-88